sensor_id;sensor_type;location;lat;lon;timestamp;P1;durP1;ratioP1;P2;durP2;ratioP2
54167;SDS011;40072;50.958;3.592;2022-10-18T00:00:56;28.88;;;18.15;;
54167;SDS011;40072;50.958;3.592;2022-10-18T00:03:22;21.70;;;17.38;;
54167;SDS011;40072;50.958;3.592;2022-10-18T00:05:48;26.15;;;17.23;;
54167;SDS011;40072;50.958;3.592;2022-10-18T00:08:14;26.77;;;16.27;;
54167;SDS011;40072;50.958;3.592;2022-10-18T00:10:41;25.60;;;17.35;;
54167;SDS011;40072;50.958;3.592;2022-10-18T00:13:07;29.05;;;17.10;;
54167;SDS011;40072;50.958;3.592;2022-10-18T00:15:32;25.40;;;16.50;;
54167;SDS011;40072;50.958;3.592;2022-10-18T00:17:58;35.05;;;18.77;;
54167;SDS011;40072;50.958;3.592;2022-10-18T00:20:24;27.35;;;18.67;;
54167;SDS011;40072;50.958;3.592;2022-10-18T00:22:50;31.08;;;17.30;;
54167;SDS011;40072;50.958;3.592;2022-10-18T00:25:16;28.58;;;17.45;;
54167;SDS011;40072;50.958;3.592;2022-10-18T00:27:41;27.88;;;17.58;;
54167;SDS011;40072;50.958;3.592;2022-10-18T00:30:07;31.27;;;19.02;;
54167;SDS011;40072;50.958;3.592;2022-10-18T00:32:40;35.08;;;20.25;;
54167;SDS011;40072;50.958;3.592;2022-10-18T00:35:06;28.25;;;18.73;;
54167;SDS011;40072;50.958;3.592;2022-10-18T00:37:33;30.52;;;17.98;;
54167;SDS011;40072;50.958;3.592;2022-10-18T00:39:59;26.67;;;17.05;;
54167;SDS011;40072;50.958;3.592;2022-10-18T00:42:26;27.40;;;17.73;;
54167;SDS011;40072;50.958;3.592;2022-10-18T00:45:00;31.73;;;19.40;;
54167;SDS011;40072;50.958;3.592;2022-10-18T00:47:29;33.30;;;18.75;;
54167;SDS011;40072;50.958;3.592;2022-10-18T00:49:56;30.80;;;17.77;;
54167;SDS011;40072;50.958;3.592;2022-10-18T00:52:27;27.10;;;18.48;;
54167;SDS011;40072;50.958;3.592;2022-10-18T00:54:57;22.70;;;16.73;;
54167;SDS011;40072;50.958;3.592;2022-10-18T00:57:23;30.27;;;16.90;;
54167;SDS011;40072;50.958;3.592;2022-10-18T00:59:49;27.88;;;17.05;;
54167;SDS011;40072;50.958;3.592;2022-10-18T01:02:16;31.05;;;17.17;;
54167;SDS011;40072;50.958;3.592;2022-10-18T01:04:43;23.02;;;16.45;;
54167;SDS011;40072;50.958;3.592;2022-10-18T01:10:01;28.25;;;18.23;;
54167;SDS011;40072;50.958;3.592;2022-10-18T01:15:25;22.48;;;17.20;;
54167;SDS011;40072;50.958;3.592;2022-10-18T01:18:16;28.27;;;18.13;;
54167;SDS011;40072;50.958;3.592;2022-10-18T01:24:13;26.42;;;18.88;;
54167;SDS011;40072;50.958;3.592;2022-10-18T01:27:04;44.28;;;20.80;;
54167;SDS011;40072;50.958;3.592;2022-10-18T01:32:23;28.88;;;19.40;;
54167;SDS011;40072;50.958;3.592;2022-10-18T01:35:13;29.70;;;21.02;;
54167;SDS011;40072;50.958;3.592;2022-10-18T01:37:42;30.88;;;22.90;;
54167;SDS011;40072;50.958;3.592;2022-10-18T01:40:11;36.40;;;22.38;;
54167;SDS011;40072;50.958;3.592;2022-10-18T01:42:40;33.92;;;22.70;;
54167;SDS011;40072;50.958;3.592;2022-10-18T01:45:09;34.63;;;22.80;;
54167;SDS011;40072;50.958;3.592;2022-10-18T01:47:37;35.33;;;21.95;;
54167;SDS011;40072;50.958;3.592;2022-10-18T01:50:04;30.17;;;22.30;;
54167;SDS011;40072;50.958;3.592;2022-10-18T01:52:31;33.83;;;22.58;;
54167;SDS011;40072;50.958;3.592;2022-10-18T01:54:57;34.00;;;22.38;;
54167;SDS011;40072;50.958;3.592;2022-10-18T02:00:14;32.80;;;22.92;;
54167;SDS011;40072;50.958;3.592;2022-10-18T02:02:49;41.95;;;23.45;;
54167;SDS011;40072;50.958;3.592;2022-10-18T02:05:43;30.83;;;22.08;;
54167;SDS011;40072;50.958;3.592;2022-10-18T02:11:04;36.70;;;23.05;;
54167;SDS011;40072;50.958;3.592;2022-10-18T02:13:37;27.92;;;21.98;;
54167;SDS011;40072;50.958;3.592;2022-10-18T02:16:12;33.67;;;20.90;;
54167;SDS011;40072;50.958;3.592;2022-10-18T02:19:04;30.33;;;21.47;;
54167;SDS011;40072;50.958;3.592;2022-10-18T02:21:39;26.98;;;21.15;;
54167;SDS011;40072;50.958;3.592;2022-10-18T02:24:07;36.88;;;21.73;;
54167;SDS011;40072;50.958;3.592;2022-10-18T02:26:35;32.90;;;20.15;;
54167;SDS011;40072;50.958;3.592;2022-10-18T02:29:01;33.88;;;21.02;;
54167;SDS011;40072;50.958;3.592;2022-10-18T02:36:57;28.00;;;19.95;;
54167;SDS011;40072;50.958;3.592;2022-10-18T02:39:26;36.38;;;20.15;;
54167;SDS011;40072;50.958;3.592;2022-10-18T02:41:55;28.77;;;20.85;;
54167;SDS011;40072;50.958;3.592;2022-10-18T02:44:22;35.90;;;19.25;;
54167;SDS011;40072;50.958;3.592;2022-10-18T02:46:48;38.75;;;20.98;;
54167;SDS011;40072;50.958;3.592;2022-10-18T02:49:14;27.95;;;19.02;;
54167;SDS011;40072;50.958;3.592;2022-10-18T02:51:39;29.42;;;18.48;;
54167;SDS011;40072;50.958;3.592;2022-10-18T02:54:05;23.83;;;17.75;;
54167;SDS011;40072;50.958;3.592;2022-10-18T02:56:32;28.67;;;18.05;;
54167;SDS011;40072;50.958;3.592;2022-10-18T02:58:58;28.67;;;17.50;;
54167;SDS011;40072;50.958;3.592;2022-10-18T03:01:24;25.48;;;16.65;;
54167;SDS011;40072;50.958;3.592;2022-10-18T03:03:50;31.80;;;17.02;;
54167;SDS011;40072;50.958;3.592;2022-10-18T03:06:15;30.58;;;16.95;;
54167;SDS011;40072;50.958;3.592;2022-10-18T03:08:41;25.02;;;16.23;;
54167;SDS011;40072;50.958;3.592;2022-10-18T03:11:07;28.40;;;16.65;;
54167;SDS011;40072;50.958;3.592;2022-10-18T03:13:32;28.92;;;16.33;;
54167;SDS011;40072;50.958;3.592;2022-10-18T03:15:58;33.40;;;17.80;;
54167;SDS011;40072;50.958;3.592;2022-10-18T03:18:24;25.20;;;16.58;;
54167;SDS011;40072;50.958;3.592;2022-10-18T03:20:50;26.10;;;17.42;;
54167;SDS011;40072;50.958;3.592;2022-10-18T03:23:15;25.70;;;17.77;;
54167;SDS011;40072;50.958;3.592;2022-10-18T03:25:41;32.78;;;17.85;;
54167;SDS011;40072;50.958;3.592;2022-10-18T03:28:06;29.05;;;17.95;;
54167;SDS011;40072;50.958;3.592;2022-10-18T03:30:32;24.65;;;17.80;;
54167;SDS011;40072;50.958;3.592;2022-10-18T03:32:58;24.35;;;17.02;;
54167;SDS011;40072;50.958;3.592;2022-10-18T03:35:24;30.58;;;18.55;;
54167;SDS011;40072;50.958;3.592;2022-10-18T03:37:49;32.33;;;18.38;;
54167;SDS011;40072;50.958;3.592;2022-10-18T03:40:15;27.70;;;16.73;;
54167;SDS011;40072;50.958;3.592;2022-10-18T03:42:41;33.00;;;17.80;;
54167;SDS011;40072;50.958;3.592;2022-10-18T03:45:07;27.38;;;17.08;;
54167;SDS011;40072;50.958;3.592;2022-10-18T03:47:33;31.40;;;17.65;;
54167;SDS011;40072;50.958;3.592;2022-10-18T03:49:58;31.92;;;17.15;;
54167;SDS011;40072;50.958;3.592;2022-10-18T03:52:24;29.67;;;17.02;;
54167;SDS011;40072;50.958;3.592;2022-10-18T03:54:50;29.35;;;16.88;;
54167;SDS011;40072;50.958;3.592;2022-10-18T03:57:15;23.83;;;16.33;;
54167;SDS011;40072;50.958;3.592;2022-10-18T03:59:41;27.73;;;14.88;;
54167;SDS011;40072;50.958;3.592;2022-10-18T04:02:07;30.33;;;16.42;;
54167;SDS011;40072;50.958;3.592;2022-10-18T04:04:33;30.15;;;16.10;;
54167;SDS011;40072;50.958;3.592;2022-10-18T04:06:58;24.10;;;15.65;;
54167;SDS011;40072;50.958;3.592;2022-10-18T04:09:24;28.63;;;16.00;;
54167;SDS011;40072;50.958;3.592;2022-10-18T04:11:50;36.58;;;15.60;;
54167;SDS011;40072;50.958;3.592;2022-10-18T04:14:15;42.72;;;17.00;;
54167;SDS011;40072;50.958;3.592;2022-10-18T04:16:41;29.95;;;16.70;;
54167;SDS011;40072;50.958;3.592;2022-10-18T04:19:07;31.73;;;16.33;;
54167;SDS011;40072;50.958;3.592;2022-10-18T04:21:32;34.25;;;16.67;;
54167;SDS011;40072;50.958;3.592;2022-10-18T04:23:58;28.48;;;17.70;;
54167;SDS011;40072;50.958;3.592;2022-10-18T04:26:24;34.28;;;19.02;;
54167;SDS011;40072;50.958;3.592;2022-10-18T04:28:50;34.30;;;17.15;;
54167;SDS011;40072;50.958;3.592;2022-10-18T04:31:19;30.05;;;19.63;;
54167;SDS011;40072;50.958;3.592;2022-10-18T04:33:45;33.88;;;19.67;;
54167;SDS011;40072;50.958;3.592;2022-10-18T04:36:10;38.17;;;19.60;;
54167;SDS011;40072;50.958;3.592;2022-10-18T04:38:39;40.27;;;20.57;;
54167;SDS011;40072;50.958;3.592;2022-10-18T04:41:05;43.35;;;20.63;;
54167;SDS011;40072;50.958;3.592;2022-10-18T04:43:30;50.83;;;21.48;;
54167;SDS011;40072;50.958;3.592;2022-10-18T04:45:56;55.13;;;23.92;;
54167;SDS011;40072;50.958;3.592;2022-10-18T04:48:22;52.97;;;23.10;;
54167;SDS011;40072;50.958;3.592;2022-10-18T04:50:49;47.65;;;22.85;;
54167;SDS011;40072;50.958;3.592;2022-10-18T04:53:16;50.00;;;22.30;;
54167;SDS011;40072;50.958;3.592;2022-10-18T04:55:43;39.83;;;21.05;;
54167;SDS011;40072;50.958;3.592;2022-10-18T04:58:10;41.17;;;21.88;;
54167;SDS011;40072;50.958;3.592;2022-10-18T05:00:39;51.55;;;23.00;;
54167;SDS011;40072;50.958;3.592;2022-10-18T05:03:06;33.42;;;22.17;;
54167;SDS011;40072;50.958;3.592;2022-10-18T05:05:32;46.53;;;23.05;;
54167;SDS011;40072;50.958;3.592;2022-10-18T05:07:58;39.05;;;22.00;;
54167;SDS011;40072;50.958;3.592;2022-10-18T05:10:25;42.88;;;23.80;;
54167;SDS011;40072;50.958;3.592;2022-10-18T05:12:53;42.17;;;23.10;;
54167;SDS011;40072;50.958;3.592;2022-10-18T05:15:19;68.00;;;28.20;;
54167;SDS011;40072;50.958;3.592;2022-10-18T05:17:45;47.55;;;25.60;;
54167;SDS011;40072;50.958;3.592;2022-10-18T05:20:11;41.30;;;23.98;;
54167;SDS011;40072;50.958;3.592;2022-10-18T05:22:37;47.50;;;25.98;;
54167;SDS011;40072;50.958;3.592;2022-10-18T05:25:02;36.58;;;22.15;;
54167;SDS011;40072;50.958;3.592;2022-10-18T05:27:28;51.30;;;23.40;;
54167;SDS011;40072;50.958;3.592;2022-10-18T05:29:54;53.05;;;25.70;;
54167;SDS011;40072;50.958;3.592;2022-10-18T05:32:20;170.05;;;34.10;;
54167;SDS011;40072;50.958;3.592;2022-10-18T05:34:45;57.75;;;25.58;;
54167;SDS011;40072;50.958;3.592;2022-10-18T05:37:11;63.05;;;28.83;;
54167;SDS011;40072;50.958;3.592;2022-10-18T05:39:37;77.50;;;35.00;;
54167;SDS011;40072;50.958;3.592;2022-10-18T05:42:03;75.28;;;33.42;;
54167;SDS011;40072;50.958;3.592;2022-10-18T05:44:29;47.88;;;24.50;;
54167;SDS011;40072;50.958;3.592;2022-10-18T05:46:55;42.13;;;24.58;;
54167;SDS011;40072;50.958;3.592;2022-10-18T05:49:20;55.72;;;25.70;;
54167;SDS011;40072;50.958;3.592;2022-10-18T05:51:46;51.80;;;26.17;;
54167;SDS011;40072;50.958;3.592;2022-10-18T05:54:12;52.08;;;26.45;;
54167;SDS011;40072;50.958;3.592;2022-10-18T05:56:38;46.92;;;27.13;;
54167;SDS011;40072;50.958;3.592;2022-10-18T05:59:04;62.67;;;29.20;;
54167;SDS011;40072;50.958;3.592;2022-10-18T06:04:03;53.95;;;28.17;;
54167;SDS011;40072;50.958;3.592;2022-10-18T06:06:29;37.25;;;24.23;;
54167;SDS011;40072;50.958;3.592;2022-10-18T06:08:56;54.75;;;26.25;;
54167;SDS011;40072;50.958;3.592;2022-10-18T06:11:21;46.65;;;26.25;;
54167;SDS011;40072;50.958;3.592;2022-10-18T06:13:47;41.70;;;23.50;;
54167;SDS011;40072;50.958;3.592;2022-10-18T06:16:16;54.67;;;28.60;;
54167;SDS011;40072;50.958;3.592;2022-10-18T06:18:47;93.97;;;38.38;;
54167;SDS011;40072;50.958;3.592;2022-10-18T06:21:14;87.93;;;38.45;;
54167;SDS011;40072;50.958;3.592;2022-10-18T06:23:40;69.82;;;34.55;;
54167;SDS011;40072;50.958;3.592;2022-10-18T06:26:06;54.78;;;29.35;;
54167;SDS011;40072;50.958;3.592;2022-10-18T06:28:34;51.50;;;26.35;;
54167;SDS011;40072;50.958;3.592;2022-10-18T06:31:01;47.53;;;24.27;;
54167;SDS011;40072;50.958;3.592;2022-10-18T06:33:29;42.80;;;23.50;;
54167;SDS011;40072;50.958;3.592;2022-10-18T06:35:59;53.78;;;26.30;;
54167;SDS011;40072;50.958;3.592;2022-10-18T06:38:26;48.15;;;25.50;;
54167;SDS011;40072;50.958;3.592;2022-10-18T06:40:53;51.95;;;26.17;;
54167;SDS011;40072;50.958;3.592;2022-10-18T06:43:21;53.45;;;28.95;;
54167;SDS011;40072;50.958;3.592;2022-10-18T06:45:47;46.58;;;26.63;;
54167;SDS011;40072;50.958;3.592;2022-10-18T06:48:14;58.72;;;26.80;;
54167;SDS011;40072;50.958;3.592;2022-10-18T06:50:40;50.15;;;26.13;;
54167;SDS011;40072;50.958;3.592;2022-10-18T06:53:05;60.58;;;27.38;;
54167;SDS011;40072;50.958;3.592;2022-10-18T06:55:33;47.97;;;26.00;;
54167;SDS011;40072;50.958;3.592;2022-10-18T06:57:59;48.33;;;23.52;;
54167;SDS011;40072;50.958;3.592;2022-10-18T07:00:24;58.85;;;26.05;;
54167;SDS011;40072;50.958;3.592;2022-10-18T07:02:50;60.35;;;25.77;;
54167;SDS011;40072;50.958;3.592;2022-10-18T07:05:16;50.55;;;26.48;;
54167;SDS011;40072;50.958;3.592;2022-10-18T07:07:41;68.65;;;28.90;;
54167;SDS011;40072;50.958;3.592;2022-10-18T07:10:07;59.10;;;27.52;;
54167;SDS011;40072;50.958;3.592;2022-10-18T07:12:33;80.25;;;32.25;;
54167;SDS011;40072;50.958;3.592;2022-10-18T07:14:59;71.82;;;30.83;;
54167;SDS011;40072;50.958;3.592;2022-10-18T07:17:25;62.03;;;27.02;;
54167;SDS011;40072;50.958;3.592;2022-10-18T07:19:51;65.75;;;27.10;;
54167;SDS011;40072;50.958;3.592;2022-10-18T07:22:16;59.10;;;25.65;;
54167;SDS011;40072;50.958;3.592;2022-10-18T07:24:42;67.03;;;24.83;;
54167;SDS011;40072;50.958;3.592;2022-10-18T07:27:07;48.28;;;26.42;;
54167;SDS011;40072;50.958;3.592;2022-10-18T07:29:33;36.15;;;22.50;;
54167;SDS011;40072;50.958;3.592;2022-10-18T07:32:02;40.80;;;21.02;;
54167;SDS011;40072;50.958;3.592;2022-10-18T07:34:28;40.33;;;22.23;;
54167;SDS011;40072;50.958;3.592;2022-10-18T07:36:53;39.20;;;20.95;;
54167;SDS011;40072;50.958;3.592;2022-10-18T07:39:19;43.88;;;22.10;;
54167;SDS011;40072;50.958;3.592;2022-10-18T07:41:45;35.00;;;21.48;;
54167;SDS011;40072;50.958;3.592;2022-10-18T07:44:10;45.50;;;20.55;;
54167;SDS011;40072;50.958;3.592;2022-10-18T07:46:36;37.00;;;21.55;;
54167;SDS011;40072;50.958;3.592;2022-10-18T07:49:02;42.65;;;19.23;;
54167;SDS011;40072;50.958;3.592;2022-10-18T07:51:28;35.85;;;17.80;;
54167;SDS011;40072;50.958;3.592;2022-10-18T07:53:56;31.23;;;16.30;;
54167;SDS011;40072;50.958;3.592;2022-10-18T07:56:25;27.13;;;14.98;;
54167;SDS011;40072;50.958;3.592;2022-10-18T07:58:51;18.98;;;14.02;;
54167;SDS011;40072;50.958;3.592;2022-10-18T08:01:20;24.77;;;13.73;;
54167;SDS011;40072;50.958;3.592;2022-10-18T08:03:46;23.38;;;14.00;;
54167;SDS011;40072;50.958;3.592;2022-10-18T08:06:14;16.80;;;13.43;;
54167;SDS011;40072;50.958;3.592;2022-10-18T08:08:41;17.48;;;13.25;;
54167;SDS011;40072;50.958;3.592;2022-10-18T08:11:09;23.35;;;13.55;;
54167;SDS011;40072;50.958;3.592;2022-10-18T08:13:36;16.40;;;12.38;;
54167;SDS011;40072;50.958;3.592;2022-10-18T08:16:04;22.77;;;11.15;;
54167;SDS011;40072;50.958;3.592;2022-10-18T08:18:34;22.45;;;9.82;;
54167;SDS011;40072;50.958;3.592;2022-10-18T08:21:01;19.88;;;10.30;;
54167;SDS011;40072;50.958;3.592;2022-10-18T08:23:28;24.38;;;10.82;;
54167;SDS011;40072;50.958;3.592;2022-10-18T08:25:53;19.48;;;10.20;;
54167;SDS011;40072;50.958;3.592;2022-10-18T08:28:19;16.20;;;10.70;;
54167;SDS011;40072;50.958;3.592;2022-10-18T08:30:45;20.52;;;11.65;;
54167;SDS011;40072;50.958;3.592;2022-10-18T08:33:10;23.42;;;10.80;;
54167;SDS011;40072;50.958;3.592;2022-10-18T08:35:36;29.13;;;10.25;;
54167;SDS011;40072;50.958;3.592;2022-10-18T08:38:02;21.73;;;10.57;;
54167;SDS011;40072;50.958;3.592;2022-10-18T08:40:28;32.70;;;11.48;;
54167;SDS011;40072;50.958;3.592;2022-10-18T08:45:29;28.25;;;11.30;;
54167;SDS011;40072;50.958;3.592;2022-10-18T08:48:00;27.50;;;11.50;;
54167;SDS011;40072;50.958;3.592;2022-10-18T08:50:32;28.40;;;11.75;;
54167;SDS011;40072;50.958;3.592;2022-10-18T08:58:30;23.92;;;8.40;;
54167;SDS011;40072;50.958;3.592;2022-10-18T09:01:01;25.35;;;8.48;;
54167;SDS011;40072;50.958;3.592;2022-10-18T09:06:48;23.95;;;7.93;;
54167;SDS011;40072;50.958;3.592;2022-10-18T09:10:01;33.15;;;8.43;;
54167;SDS011;40072;50.958;3.592;2022-10-18T09:18:16;24.65;;;6.55;;
54167;SDS011;40072;50.958;3.592;2022-10-18T09:23:49;31.23;;;7.77;;
54167;SDS011;40072;50.958;3.592;2022-10-18T09:26:44;25.55;;;7.60;;
54167;SDS011;40072;50.958;3.592;2022-10-18T09:34:49;21.50;;;6.15;;
54167;SDS011;40072;50.958;3.592;2022-10-18T09:37:26;32.08;;;6.80;;
54167;SDS011;40072;50.958;3.592;2022-10-18T09:40:02;32.28;;;7.00;;
54167;SDS011;40072;50.958;3.592;2022-10-18T09:43:25;22.27;;;7.28;;
54167;SDS011;40072;50.958;3.592;2022-10-18T09:45:43;24.27;;;6.22;;
54167;SDS011;40072;50.958;3.592;2022-10-18T09:53:35;26.23;;;6.00;;
54167;SDS011;40072;50.958;3.592;2022-10-18T09:56:25;24.30;;;6.28;;
54167;SDS011;40072;50.958;3.592;2022-10-18T09:58:55;26.58;;;6.80;;
54167;SDS011;40072;50.958;3.592;2022-10-18T10:01:22;21.33;;;5.38;;
54167;SDS011;40072;50.958;3.592;2022-10-18T10:03:50;26.23;;;6.93;;
54167;SDS011;40072;50.958;3.592;2022-10-18T10:08:53;22.13;;;6.45;;
54167;SDS011;40072;50.958;3.592;2022-10-18T10:11:43;21.35;;;6.72;;
54167;SDS011;40072;50.958;3.592;2022-10-18T10:14:21;18.75;;;6.68;;
54167;SDS011;40072;50.958;3.592;2022-10-18T10:19:21;27.08;;;6.13;;
54167;SDS011;40072;50.958;3.592;2022-10-18T10:21:53;29.38;;;8.68;;
54167;SDS011;40072;50.958;3.592;2022-10-18T10:24:36;25.90;;;7.15;;
54167;SDS011;40072;50.958;3.592;2022-10-18T10:27:04;24.70;;;7.35;;
54167;SDS011;40072;50.958;3.592;2022-10-18T10:32:11;21.30;;;7.53;;
54167;SDS011;40072;50.958;3.592;2022-10-18T10:34:38;20.98;;;7.63;;
54167;SDS011;40072;50.958;3.592;2022-10-18T10:37:20;20.92;;;7.47;;
54167;SDS011;40072;50.958;3.592;2022-10-18T10:42:47;27.95;;;7.90;;
54167;SDS011;40072;50.958;3.592;2022-10-18T10:45:18;33.08;;;8.07;;
54167;SDS011;40072;50.958;3.592;2022-10-18T10:47:45;26.67;;;9.13;;
54167;SDS011;40072;50.958;3.592;2022-10-18T10:50:12;23.08;;;8.05;;
54167;SDS011;40072;50.958;3.592;2022-10-18T10:52:46;26.70;;;8.02;;
54167;SDS011;40072;50.958;3.592;2022-10-18T10:55:17;23.27;;;6.72;;
54167;SDS011;40072;50.958;3.592;2022-10-18T10:57:47;22.15;;;7.05;;
54167;SDS011;40072;50.958;3.592;2022-10-18T11:03:10;21.73;;;5.85;;
54167;SDS011;40072;50.958;3.592;2022-10-18T11:05:46;18.35;;;5.65;;
54167;SDS011;40072;50.958;3.592;2022-10-18T11:08:21;17.05;;;5.32;;
54167;SDS011;40072;50.958;3.592;2022-10-18T11:10:58;21.85;;;5.25;;
54167;SDS011;40072;50.958;3.592;2022-10-18T11:13:49;16.35;;;5.32;;
54167;SDS011;40072;50.958;3.592;2022-10-18T11:16:26;23.00;;;4.38;;
54167;SDS011;40072;50.958;3.592;2022-10-18T11:18:57;15.35;;;4.65;;
54167;SDS011;40072;50.958;3.592;2022-10-18T11:23:53;18.05;;;4.43;;
54167;SDS011;40072;50.958;3.592;2022-10-18T11:32:44;16.73;;;5.22;;
54167;SDS011;40072;50.958;3.592;2022-10-18T11:48:52;16.75;;;3.85;;
54167;SDS011;40072;50.958;3.592;2022-10-18T11:57:04;18.85;;;4.25;;
54167;SDS011;40072;50.958;3.592;2022-10-18T12:05:38;19.02;;;4.30;;
54167;SDS011;40072;50.958;3.592;2022-10-18T12:08:11;21.67;;;5.13;;
54167;SDS011;40072;50.958;3.592;2022-10-18T12:10:40;17.17;;;4.10;;
54167;SDS011;40072;50.958;3.592;2022-10-18T12:13:11;22.35;;;4.15;;
54167;SDS011;40072;50.958;3.592;2022-10-18T12:15:42;19.33;;;4.00;;
54167;SDS011;40072;50.958;3.592;2022-10-18T12:18:13;20.40;;;3.63;;
54167;SDS011;40072;50.958;3.592;2022-10-18T12:20:42;18.48;;;4.28;;
54167;SDS011;40072;50.958;3.592;2022-10-18T12:23:15;16.50;;;3.35;;
54167;SDS011;40072;50.958;3.592;2022-10-18T12:25:55;19.70;;;3.30;;
54167;SDS011;40072;50.958;3.592;2022-10-18T12:34:00;16.45;;;3.80;;
54167;SDS011;40072;50.958;3.592;2022-10-18T12:37:07;14.07;;;4.03;;
54167;SDS011;40072;50.958;3.592;2022-10-18T12:39:39;14.93;;;3.80;;
54167;SDS011;40072;50.958;3.592;2022-10-18T12:42:22;14.98;;;3.67;;
54167;SDS011;40072;50.958;3.592;2022-10-18T12:47:54;15.05;;;3.53;;
54167;SDS011;40072;50.958;3.592;2022-10-18T12:53:03;19.13;;;3.33;;
54167;SDS011;40072;50.958;3.592;2022-10-18T12:55:36;18.15;;;3.95;;
54167;SDS011;40072;50.958;3.592;2022-10-18T12:58:20;14.75;;;4.07;;
54167;SDS011;40072;50.958;3.592;2022-10-18T13:00:55;18.05;;;3.38;;
54167;SDS011;40072;50.958;3.592;2022-10-18T13:24:44;12.25;;;3.15;;
54167;SDS011;40072;50.958;3.592;2022-10-18T13:33:02;13.48;;;2.92;;
54167;SDS011;40072;50.958;3.592;2022-10-18T13:35:45;20.98;;;3.70;;
54167;SDS011;40072;50.958;3.592;2022-10-18T13:41:12;13.90;;;3.45;;
54167;SDS011;40072;50.958;3.592;2022-10-18T13:59:33;18.17;;;3.85;;
54167;SDS011;40072;50.958;3.592;2022-10-18T14:07:44;17.75;;;3.60;;
54167;SDS011;40072;50.958;3.592;2022-10-18T14:11:14;13.98;;;3.10;;
54167;SDS011;40072;50.958;3.592;2022-10-18T14:13:26;18.85;;;3.38;;
54167;SDS011;40072;50.958;3.592;2022-10-18T14:16:00;16.83;;;3.08;;
54167;SDS011;40072;50.958;3.592;2022-10-18T14:18:31;21.38;;;4.25;;
54167;SDS011;40072;50.958;3.592;2022-10-18T14:21:04;17.90;;;3.97;;
54167;SDS011;40072;50.958;3.592;2022-10-18T14:23:36;18.90;;;3.95;;
54167;SDS011;40072;50.958;3.592;2022-10-18T14:26:08;21.67;;;4.47;;
54167;SDS011;40072;50.958;3.592;2022-10-18T14:29:06;21.20;;;4.60;;
54167;SDS011;40072;50.958;3.592;2022-10-18T14:31:53;16.17;;;3.90;;
54167;SDS011;40072;50.958;3.592;2022-10-18T14:34:19;19.95;;;4.20;;
54167;SDS011;40072;50.958;3.592;2022-10-18T14:36:46;21.10;;;4.65;;
54167;SDS011;40072;50.958;3.592;2022-10-18T14:39:17;26.83;;;5.43;;
54167;SDS011;40072;50.958;3.592;2022-10-18T14:41:52;21.75;;;4.40;;
54167;SDS011;40072;50.958;3.592;2022-10-18T14:44:20;19.10;;;4.90;;
54167;SDS011;40072;50.958;3.592;2022-10-18T14:49:25;21.58;;;4.97;;
54167;SDS011;40072;50.958;3.592;2022-10-18T14:51:52;18.73;;;4.60;;
54167;SDS011;40072;50.958;3.592;2022-10-18T14:54:32;23.42;;;4.95;;
54167;SDS011;40072;50.958;3.592;2022-10-18T14:57:02;14.57;;;4.65;;
54167;SDS011;40072;50.958;3.592;2022-10-18T14:59:33;17.98;;;4.38;;
54167;SDS011;40072;50.958;3.592;2022-10-18T15:02:13;19.70;;;4.55;;
54167;SDS011;40072;50.958;3.592;2022-10-18T15:04:45;18.63;;;4.55;;
54167;SDS011;40072;50.958;3.592;2022-10-18T15:07:12;24.45;;;4.85;;
54167;SDS011;40072;50.958;3.592;2022-10-18T15:09:42;17.63;;;4.10;;
54167;SDS011;40072;50.958;3.592;2022-10-18T15:12:09;15.05;;;4.40;;
54167;SDS011;40072;50.958;3.592;2022-10-18T15:14:38;15.55;;;4.70;;
54167;SDS011;40072;50.958;3.592;2022-10-18T15:17:17;17.15;;;4.00;;
54167;SDS011;40072;50.958;3.592;2022-10-18T15:19:54;23.35;;;4.20;;
54167;SDS011;40072;50.958;3.592;2022-10-18T15:22:46;21.35;;;3.97;;
54167;SDS011;40072;50.958;3.592;2022-10-18T15:25:14;21.05;;;4.75;;
54167;SDS011;40072;50.958;3.592;2022-10-18T15:27:54;26.95;;;4.88;;
54167;SDS011;40072;50.958;3.592;2022-10-18T15:30:23;18.50;;;4.43;;
54167;SDS011;40072;50.958;3.592;2022-10-18T15:32:55;16.52;;;4.35;;
54167;SDS011;40072;50.958;3.592;2022-10-18T15:35:25;16.20;;;3.88;;
54167;SDS011;40072;50.958;3.592;2022-10-18T15:37:53;15.88;;;3.88;;
54167;SDS011;40072;50.958;3.592;2022-10-18T15:42:47;24.15;;;4.32;;
54167;SDS011;40072;50.958;3.592;2022-10-18T15:45:36;15.02;;;3.45;;
54167;SDS011;40072;50.958;3.592;2022-10-18T15:55:53;15.60;;;3.90;;
54167;SDS011;40072;50.958;3.592;2022-10-18T15:58:21;17.83;;;4.00;;
54167;SDS011;40072;50.958;3.592;2022-10-18T16:00:47;16.80;;;4.00;;
54167;SDS011;40072;50.958;3.592;2022-10-18T16:03:15;18.98;;;3.55;;
54167;SDS011;40072;50.958;3.592;2022-10-18T16:05:42;18.85;;;3.45;;
54167;SDS011;40072;50.958;3.592;2022-10-18T16:08:18;16.50;;;4.10;;
54167;SDS011;40072;50.958;3.592;2022-10-18T16:10:46;22.17;;;4.28;;
54167;SDS011;40072;50.958;3.592;2022-10-18T16:13:11;15.30;;;4.03;;
54167;SDS011;40072;50.958;3.592;2022-10-18T16:15:37;21.30;;;4.35;;
54167;SDS011;40072;50.958;3.592;2022-10-18T16:18:03;23.75;;;4.05;;
54167;SDS011;40072;50.958;3.592;2022-10-18T16:20:28;18.08;;;3.88;;
54167;SDS011;40072;50.958;3.592;2022-10-18T16:22:57;19.23;;;4.35;;
54167;SDS011;40072;50.958;3.592;2022-10-18T16:25:23;20.60;;;4.28;;
54167;SDS011;40072;50.958;3.592;2022-10-18T16:27:48;21.98;;;4.65;;
54167;SDS011;40072;50.958;3.592;2022-10-18T16:30:15;21.75;;;4.38;;
54167;SDS011;40072;50.958;3.592;2022-10-18T16:32:43;23.70;;;4.63;;
54167;SDS011;40072;50.958;3.592;2022-10-18T16:35:10;16.67;;;4.60;;
54167;SDS011;40072;50.958;3.592;2022-10-18T16:37:37;17.42;;;4.18;;
54167;SDS011;40072;50.958;3.592;2022-10-18T16:42:45;22.02;;;4.60;;
54167;SDS011;40072;50.958;3.592;2022-10-18T16:45:11;22.70;;;5.07;;
54167;SDS011;40072;50.958;3.592;2022-10-18T16:47:36;17.15;;;4.38;;
54167;SDS011;40072;50.958;3.592;2022-10-18T16:50:02;25.02;;;4.32;;
54167;SDS011;40072;50.958;3.592;2022-10-18T16:52:32;24.75;;;4.40;;
54167;SDS011;40072;50.958;3.592;2022-10-18T16:54:58;19.73;;;4.57;;
54167;SDS011;40072;50.958;3.592;2022-10-18T16:57:23;25.95;;;5.15;;
54167;SDS011;40072;50.958;3.592;2022-10-18T16:59:49;18.67;;;5.07;;
54167;SDS011;40072;50.958;3.592;2022-10-18T17:02:15;19.83;;;4.40;;
54167;SDS011;40072;50.958;3.592;2022-10-18T17:04:40;20.27;;;5.30;;
54167;SDS011;40072;50.958;3.592;2022-10-18T17:07:06;20.25;;;5.15;;
54167;SDS011;40072;50.958;3.592;2022-10-18T17:09:36;24.80;;;5.57;;
54167;SDS011;40072;50.958;3.592;2022-10-18T17:12:02;27.45;;;5.85;;
54167;SDS011;40072;50.958;3.592;2022-10-18T17:14:28;21.50;;;5.30;;
54167;SDS011;40072;50.958;3.592;2022-10-18T17:16:53;15.70;;;4.80;;
54167;SDS011;40072;50.958;3.592;2022-10-18T17:19:19;25.33;;;5.95;;
54167;SDS011;40072;50.958;3.592;2022-10-18T17:21:45;31.20;;;6.68;;
54167;SDS011;40072;50.958;3.592;2022-10-18T17:24:10;22.52;;;6.57;;
54167;SDS011;40072;50.958;3.592;2022-10-18T17:26:36;20.27;;;5.25;;
54167;SDS011;40072;50.958;3.592;2022-10-18T17:29:03;23.88;;;5.05;;
54167;SDS011;40072;50.958;3.592;2022-10-18T17:31:30;24.25;;;5.50;;
54167;SDS011;40072;50.958;3.592;2022-10-18T17:33:56;19.40;;;5.47;;
54167;SDS011;40072;50.958;3.592;2022-10-18T17:36:25;27.42;;;7.55;;
54167;SDS011;40072;50.958;3.592;2022-10-18T17:38:51;19.38;;;5.50;;
54167;SDS011;40072;50.958;3.592;2022-10-18T17:41:18;14.98;;;4.55;;